Forside
METAR-TAF:

METAR-TAF

Lufthavne :

Samarkand, Usbekistan

Breddekreds: 39-34N, længdekreds: 066-57E, højde: 724 m

Aktuelle vejr

Denne rapport blev lavet for 18 minutter siden, kl. 02:30 UTC
Vind 6 kt fra sydøst
Temperatur 4°C
Fugtighed 70%
Tryk 1021 hPa
Sigt: 7000 m

METAR: UTSS 170230Z 13006KT 7000 NSC 04/M01 Q1021 R09/CLRD70 NOSIG

Tid: 07:48 (02:48 UTC)

Vejrudsigter

Denne rapport blev lavet for 3 timer og 53 minutter siden, kl. 22:55 UTC
Foreløbig gælder fra 17 på 00 UTC til 17 på 24 UTC
Vind 10 kt fra sydøst med vindstød på up til 20 kt
Sigt 10 km eller mere
Midlertidig
fra 17 på 00 UTC til 17 på 12 UTC
Vind 14 kt fra østnordøst med vindstød på up til 24 kt
Spredte skyer i en højde af 5000 ft, Cumulonimbus.
Brudte skyer i en højde af 10000 ft

TAF: UTSS 162255Z 1700/1724 13010G20KT 9999 NSC TEMPO 1700/1712 07014G24KT SCT050CB BKN100

Vejrobservationer og prognoser fra mere end 4000 lufthavne (METAR og TAF).

De gule og røde prikker repræsenterer de meteorologiske stationer.

Flyt musen over at se navnet på stationen.

Så klik over at se vejr observationer og prognoser.

At skifte det kort: Klik på de grønne knapper med et sort kors for at zoome ind; på den grønne knap med en bindestreg for at zoome ud; eller på de grønne pile for tilstødende kort.


METAR-TAF: